Effingham, New Hampshire
Current Conditions -  °F | °C
As of 3:14 AM on Thursday 27 Nov 2014 (Local Time) from KIZG Reporting Station
Light Snow Light Snow  
Wind Chill: 25°   Ceiling: NA
Heat Index: 31°   Visibility: 3mi
Dew Point: 29°   Wind: 6mph
Humidity: 92%   Direction: 340°NNW
Pressure: 29.78"   Gusts: NA
Location:  43.72°N, 71.0034°W
Report Text: KIZG 270814Z AUTO 34005KT 3SM -SN BR M01/M02 A2978 RMK AO2 P0000 T10061017 $
Loading
Personal Weather Stations






























Interactive Weather Map New forecast layout! Learn more

10-Day Weather Forecast

Advertisements
Track Severe Weather on mobile